Terminal Aerodrome Forecast
Issued by NWS Sioux Falls, SD

Home | Current Version | Previous Version | Text Only | Print | Product List | Glossary On
Versions: 1 2 3 4 5 6 7 8 9 10 11 12 13 14 15 16 17 18 19 20 21 22 23 24 25 26 27 28 29 30 31 32 33 34 35 36 37 38 39 40 41 42
719
FTUS43 KFSD 231120
TAFSUX
TAF
KSUX 231120Z 2312/2412 31005KT P6SM OVC012
     FM231400 30006KT P6SM OVC008
     FM231700 VRB03KT P6SM BKN015
     FM232000 10005KT P6SM BKN030
     FM232100 14007KT P6SM BKN040
     FM240800 11010KT P6SM BKN035
     FM241100 11012KT 6SM -SN OVC025=

USA.gov is the U.S. government's official web portal to all federal, state and local government web resources and services.